< < Back
Terminal Aerodrome Forecast


Current Version              Previous Versions:   1  2  3  4  5  6  7  8  9  

Terminal Aerodrome Forecast

212
FTUS44 KMRX 272012 AAA
TAFTYS
TAF AMD
KTYS 272012Z 2720/2818 25008KT 4SM BR VCTS SCT050CB BKN070
      TEMPO 2720/2721 VRB10G28KT 1SM -TSRA BR SCT030CB OVC040
     FM272200 29010KT 5SM -TSRA BR SCT030 OVC040CB
      TEMPO 2722/2801 2SM TSRA BR OVC025CB
     FM280100 03005KT P6SM VCTS SCT045CB BKN090
     FM280600 04003KT 6SM BR SCT015 BKN120
     FM281300 VRB03KT P6SM FEW030 SCT150=

Latest METAR

627
SAUS80 KWBC 272300 RRZ
MTRTYS
METAR KTYS 272153Z 23003KT 10SM -RA FEW055 SCT110 OVC250 25/21 A3002 RMK
AO2 RAB23 SLP152 P0000 T02500211


USA.gov is the U.S. government's official web portal to all federal, state and local government web resources and services.